createdAt,value
2019-03-05T00:01:45.265Z,10.18
2019-03-05T00:06:50.629Z,10.08
2019-03-05T00:11:56.008Z,10.12
2019-03-05T00:17:01.443Z,10.10
2019-03-05T00:22:06.855Z,10.09
2019-03-05T00:27:12.249Z,10.08
2019-03-05T00:32:17.655Z,10.05
2019-03-05T00:38:15.728Z,10.02
2019-03-05T00:43:30.807Z,10.04
2019-03-05T00:49:17.314Z,10.14
2019-03-05T00:55:50.587Z,10.22
2019-03-05T01:01:59.345Z,10.27
2019-03-05T01:07:04.798Z,10.21
2019-03-05T01:12:10.185Z,10.06
2019-03-05T01:17:15.501Z,9.86
2019-03-05T01:22:20.880Z,9.58
2019-03-05T01:27:26.324Z,9.32
2019-03-05T01:32:41.034Z,9.07
2019-03-05T01:37:46.402Z,8.80
2019-03-05T01:42:51.868Z,8.55
2019-03-05T01:47:57.219Z,8.36
2019-03-05T01:53:02.580Z,8.19
2019-03-05T01:58:07.954Z,8.07
2019-03-05T02:03:13.361Z,7.98
2019-03-05T02:08:18.758Z,7.92
2019-03-05T02:13:24.143Z,7.84
2019-03-05T02:18:29.576Z,7.77
2019-03-05T02:24:22.936Z,7.72
2019-03-05T02:30:21.435Z,7.69
2019-03-05T02:35:53.990Z,7.68
2019-03-05T02:41:28.990Z,7.75
2019-03-05T02:47:16.386Z,7.79
2019-03-05T02:53:11.377Z,7.91
2019-03-05T02:58:14.545Z,8.02
2019-03-05T03:03:30.638Z,8.11
2019-03-05T03:08:36.036Z,8.20
2019-03-05T03:13:41.407Z,8.35
2019-03-05T03:18:46.887Z,8.48
2019-03-05T03:23:52.299Z,8.58
2019-03-05T03:28:57.644Z,8.63
2019-03-05T03:34:02.987Z,8.74
2019-03-05T03:39:08.442Z,8.94
2019-03-05T03:44:13.830Z,9.11
2019-03-05T03:49:19.189Z,9.28
2019-03-05T03:54:24.674Z,9.43
2019-03-05T03:59:30.092Z,9.55
2019-03-05T04:04:35.442Z,9.59
2019-03-05T04:09:40.782Z,9.59
2019-03-05T04:14:46.126Z,9.59
2019-03-05T04:19:51.466Z,9.54
2019-03-05T04:24:56.849Z,9.52
2019-03-05T04:30:02.243Z,9.49
2019-03-05T04:35:10.211Z,9.47
2019-03-05T04:40:15.641Z,9.33
2019-03-05T04:45:59.112Z,9.20
2019-03-05T04:51:11.207Z,9.13
2019-03-05T04:56:16.594Z,9.13
2019-03-05T05:01:21.992Z,9.13
2019-03-05T05:06:27.358Z,9.14
2019-03-05T05:11:32.725Z,9.17
2019-03-05T05:16:38.106Z,9.22
2019-03-05T05:21:43.513Z,9.28
2019-03-05T05:26:48.884Z,9.32
2019-03-05T05:31:54.232Z,9.32
2019-03-05T05:36:59.668Z,9.30
2019-03-05T05:42:05.086Z,9.32
2019-03-05T05:47:10.451Z,9.31
2019-03-05T05:52:15.868Z,9.30
2019-03-05T05:57:21.275Z,9.32
2019-03-05T06:02:26.774Z,9.33
2019-03-05T06:07:32.129Z,9.36
2019-03-05T06:12:37.468Z,9.38
2019-03-05T06:17:42.828Z,9.40
2019-03-05T06:22:48.214Z,9.40
2019-03-05T06:27:53.614Z,9.36
2019-03-05T06:32:59.031Z,9.35
2019-03-05T06:38:04.482Z,9.29
2019-03-05T06:43:09.845Z,9.23
2019-03-05T06:48:15.293Z,9.19
2019-03-05T06:53:20.633Z,9.14
2019-03-05T06:58:26.011Z,9.10
2019-03-05T07:03:31.381Z,9.06
2019-03-05T07:08:39.980Z,9.00
2019-03-05T07:13:45.445Z,8.93
2019-03-05T07:19:11.426Z,8.90
2019-03-05T07:24:38.806Z,8.85
2019-03-05T07:29:44.287Z,8.86
2019-03-05T07:34:50.107Z,8.96
2019-03-05T07:39:55.510Z,9.06
2019-03-05T07:45:00.883Z,9.13
2019-03-05T07:50:06.999Z,9.22
2019-03-05T07:55:15.416Z,9.37
2019-03-05T08:00:22.401Z,9.46
2019-03-05T08:05:27.752Z,9.57
2019-03-05T08:10:34.041Z,9.69
2019-03-05T08:16:14.428Z,9.72
2019-03-05T08:21:19.881Z,9.77
2019-03-05T08:26:25.424Z,9.90
2019-03-05T08:31:30.886Z,10.03
2019-03-05T08:36:36.300Z,10.21
2019-03-05T08:41:42.089Z,10.18
2019-03-05T08:46:47.467Z,10.19
2019-03-05T08:51:52.791Z,10.24
2019-03-05T08:56:58.144Z,10.24
2019-03-05T09:02:03.825Z,10.40
2019-03-05T09:07:09.270Z,10.55
2019-03-05T09:12:14.744Z,10.51
2019-03-05T09:17:20.544Z,10.49
2019-03-05T09:22:25.958Z,10.49
2019-03-05T09:27:31.310Z,10.56
2019-03-05T09:32:36.705Z,10.70
2019-03-05T09:37:42.220Z,11.13
2019-03-05T09:48:01.867Z,11.75
2019-03-05T09:53:07.312Z,11.73
2019-03-05T09:58:12.776Z,11.71
2019-03-05T10:03:18.493Z,11.64
2019-03-05T10:08:31.896Z,11.57
2019-03-05T10:13:31.076Z,11.51
2019-03-05T10:18:39.225Z,11.53
2019-03-05T10:23:43.666Z,11.56
2019-03-05T10:28:49.099Z,11.75
2019-03-05T10:33:54.530Z,11.88
2019-03-05T10:39:00.086Z,11.80
2019-03-05T10:44:05.534Z,11.98
2019-03-05T10:49:10.914Z,12.22
2019-03-05T10:54:16.359Z,12.53
2019-03-05T10:59:21.712Z,12.72
2019-03-05T11:04:27.227Z,12.79
2019-03-05T11:09:32.605Z,12.91
2019-03-05T11:14:38.186Z,13.04
2019-03-05T11:19:43.579Z,13.30
2019-03-05T11:24:48.975Z,13.40
2019-03-05T11:29:54.343Z,13.38
2019-03-05T11:34:59.756Z,13.60
2019-03-05T11:40:05.677Z,14.03
2019-03-05T11:45:15.920Z,14.27
2019-03-05T11:50:21.358Z,14.17
2019-03-05T11:55:26.837Z,14.41
2019-03-05T12:00:54.409Z,14.81
2019-03-05T12:05:59.770Z,15.04
2019-03-05T12:11:05.178Z,15.17
2019-03-05T12:16:13.550Z,15.24
2019-03-05T12:21:19.046Z,15.41
2019-03-05T12:26:24.507Z,15.36
2019-03-05T12:31:29.841Z,15.39
2019-03-05T12:36:35.353Z,15.34
2019-03-05T12:41:40.758Z,14.83
2019-03-05T12:46:46.184Z,14.72
2019-03-05T12:51:51.802Z,14.83
2019-03-05T12:56:57.535Z,14.90
2019-03-05T13:02:03.020Z,14.90
2019-03-05T13:07:08.619Z,14.95
2019-03-05T13:12:14.040Z,14.81
2019-03-05T13:17:19.594Z,14.58
2019-03-05T13:22:28.919Z,14.68
2019-03-05T13:27:32.044Z,14.74
2019-03-05T13:32:37.658Z,14.78
2019-03-05T13:37:43.068Z,14.71
2019-03-05T13:42:48.498Z,14.50
2019-03-05T13:48:02.570Z,14.39
2019-03-05T13:53:47.451Z,14.26
2019-03-05T13:59:37.759Z,14.25
2019-03-05T14:04:59.987Z,14.29
2019-03-05T14:10:05.530Z,14.50
2019-03-05T14:15:11.038Z,14.45
2019-03-05T14:20:17.473Z,14.33
2019-03-05T14:25:22.849Z,14.34
2019-03-05T14:30:28.403Z,14.38
2019-03-05T14:35:34.389Z,14.63
2019-03-05T14:40:39.757Z,14.84
2019-03-05T14:45:45.173Z,14.84
2019-03-05T14:50:50.632Z,14.83
2019-03-05T14:55:56.329Z,14.72
2019-03-05T15:01:01.904Z,14.43
2019-03-05T15:06:07.467Z,14.25
2019-03-05T15:11:12.883Z,14.22
2019-03-05T15:16:18.320Z,14.15
2019-03-05T15:21:23.744Z,14.20
2019-03-05T15:26:29.333Z,14.17
2019-03-05T15:31:34.771Z,14.01
2019-03-05T15:36:40.155Z,13.84
2019-03-05T15:41:46.395Z,13.73
2019-03-05T15:46:51.766Z,13.51
2019-03-05T15:51:57.334Z,13.30
2019-03-05T15:57:02.870Z,13.13
2019-03-05T16:02:08.261Z,12.97
2019-03-05T16:07:13.708Z,12.79
2019-03-05T16:12:19.267Z,12.66
2019-03-05T16:17:28.092Z,12.53
2019-03-05T16:22:32.092Z,12.42
2019-03-05T16:27:37.568Z,12.27
2019-03-05T16:32:50.741Z,12.15
2019-03-05T16:38:18.251Z,12.01
2019-03-05T16:43:44.086Z,11.87
2019-03-05T16:48:56.402Z,11.73
2019-03-05T16:54:32.561Z,11.59
2019-03-05T16:59:53.355Z,11.44
2019-03-05T17:05:22.422Z,11.31
2019-03-05T17:10:48.145Z,11.17
2019-03-05T17:15:53.592Z,11.03
2019-03-05T17:20:59.120Z,11.00
2019-03-05T17:26:04.515Z,10.95
2019-03-05T17:31:10.051Z,10.84
2019-03-05T17:36:15.477Z,10.73
2019-03-05T17:41:20.832Z,10.63
2019-03-05T17:46:26.332Z,10.56
2019-03-05T17:51:31.755Z,10.49
2019-03-05T17:56:37.155Z,10.44
2019-03-05T18:01:42.635Z,10.37
2019-03-05T18:06:48.345Z,10.33
2019-03-05T18:11:53.779Z,10.32
2019-03-05T18:16:59.200Z,10.29
2019-03-05T18:22:04.589Z,10.24
2019-03-05T18:27:10.069Z,10.20
2019-03-05T18:32:15.598Z,10.17
2019-03-05T18:37:21.036Z,10.14
2019-03-05T18:42:26.577Z,10.12
2019-03-05T18:47:32.604Z,10.11
2019-03-05T18:52:38.168Z,10.11
2019-03-05T18:57:43.663Z,10.10
2019-03-05T19:02:49.248Z,10.08
2019-03-05T19:07:54.754Z,10.05
2019-03-05T19:13:00.349Z,10.01
2019-03-05T19:18:05.974Z,9.97
2019-03-05T19:23:11.423Z,9.92
2019-03-05T19:28:16.826Z,9.89
2019-03-05T19:33:22.266Z,9.83
2019-03-05T19:38:27.677Z,9.75
2019-03-05T19:43:33.065Z,9.67
2019-03-05T19:48:39.514Z,9.56
2019-03-05T19:53:44.947Z,9.45
2019-03-05T19:58:50.986Z,9.35
2019-03-05T20:03:56.389Z,9.28
2019-03-05T20:09:01.829Z,9.22
2019-03-05T20:14:07.251Z,9.14
2019-03-05T20:19:12.809Z,9.08
2019-03-05T20:24:18.192Z,9.04
2019-03-05T20:29:23.558Z,9.00
2019-03-05T20:34:29.038Z,8.96
2019-03-05T20:39:34.745Z,8.92
2019-03-05T20:44:40.244Z,8.85
2019-03-05T20:49:45.804Z,8.79
2019-03-05T20:54:52.066Z,8.73
2019-03-05T20:59:58.311Z,8.67
2019-03-05T21:05:04.246Z,8.61
2019-03-05T21:10:09.865Z,8.58
2019-03-05T21:15:15.360Z,8.55
2019-03-05T21:20:20.761Z,8.57
2019-03-05T21:25:26.122Z,8.59
2019-03-05T21:30:31.702Z,8.61
2019-03-05T21:35:37.201Z,8.64
2019-03-05T21:40:42.706Z,8.64
2019-03-05T21:45:48.639Z,8.65
2019-03-05T21:50:54.609Z,8.64
2019-03-05T21:55:59.984Z,8.65
2019-03-05T22:01:05.381Z,8.68
2019-03-05T22:06:10.842Z,8.76
2019-03-05T22:11:16.285Z,8.83
2019-03-05T22:16:22.145Z,8.93
2019-03-05T22:21:27.557Z,9.02
2019-03-05T22:26:33.047Z,9.13
2019-03-05T22:31:38.436Z,9.26
2019-03-05T22:36:43.930Z,9.34
2019-03-05T22:41:49.311Z,9.42
2019-03-05T22:46:54.801Z,9.48
2019-03-05T22:52:00.216Z,9.56
2019-03-05T22:57:05.569Z,9.64
2019-03-05T23:02:11.063Z,9.71
2019-03-05T23:07:16.827Z,9.80
2019-03-05T23:12:22.252Z,9.88
2019-03-05T23:17:27.680Z,9.95
2019-03-05T23:22:33.015Z,9.98
2019-03-05T23:27:38.489Z,10.04
2019-03-05T23:32:43.847Z,10.09
2019-03-05T23:37:49.267Z,10.14
2019-03-05T23:42:54.624Z,10.17
2019-03-05T23:48:00.078Z,10.19
2019-03-05T23:53:05.433Z,10.22
2019-03-05T23:58:10.844Z,10.25
